createdAt,value
2023-05-07T00:03:02.251Z,7.62
2023-05-07T00:07:04.590Z,5.20
2023-05-07T00:11:06.317Z,4.50
2023-05-07T00:15:08.930Z,5.68
2023-05-07T00:19:10.887Z,4.93
2023-05-07T00:23:12.556Z,3.92
2023-05-07T00:27:14.275Z,2.87
2023-05-07T00:31:15.941Z,5.47
2023-05-07T00:35:17.624Z,4.30
2023-05-07T00:39:19.393Z,3.17
2023-05-07T00:43:21.465Z,4.43
2023-05-07T00:47:23.249Z,6.97
2023-05-07T00:51:26.105Z,2.55
2023-05-07T00:55:27.863Z,4.93
2023-05-07T00:59:29.531Z,6.05
2023-05-07T01:03:31.298Z,7.97
2023-05-07T01:07:34.730Z,4.25
2023-05-07T01:11:36.476Z,4.35
2023-05-07T01:15:38.683Z,2.33
2023-05-07T01:19:40.365Z,6.80
2023-05-07T01:23:42.711Z,5.43
2023-05-07T01:27:44.402Z,6.40
2023-05-07T01:31:47.192Z,7.12
2023-05-07T01:35:52.274Z,4.10
2023-05-07T01:39:54.609Z,5.62
2023-05-07T01:43:57.598Z,4.90
2023-05-07T01:48:00.440Z,5.35
2023-05-07T01:52:02.892Z,3.35
2023-05-07T01:56:04.922Z,10.75
2023-05-07T02:00:07.363Z,9.45
2023-05-07T02:04:09.062Z,5.62
2023-05-07T02:08:10.863Z,2.60
2023-05-07T02:12:12.574Z,5.25
2023-05-07T02:16:15.387Z,7.45
2023-05-07T02:20:17.224Z,4.57
2023-05-07T02:24:18.878Z,6.53
2023-05-07T02:28:20.699Z,13.35
2023-05-07T02:32:24.005Z,6.62
2023-05-07T02:36:25.661Z,4.47
2023-05-07T02:40:27.340Z,5.53
2023-05-07T02:44:32.218Z,5.40
2023-05-07T02:48:34.479Z,5.43
2023-05-07T02:52:36.137Z,5.55
2023-05-07T02:56:37.798Z,5.20
2023-05-07T03:00:39.431Z,4.20
2023-05-07T03:04:41.153Z,5.10
2023-05-07T03:08:42.789Z,5.72
2023-05-07T03:12:44.603Z,6.53
2023-05-07T03:16:46.237Z,4.35
2023-05-07T03:20:49.449Z,8.15
2023-05-07T03:24:51.674Z,5.10
2023-05-07T03:28:53.704Z,5.80
2023-05-07T03:32:55.375Z,6.65
2023-05-07T03:36:57.050Z,5.30
2023-05-07T03:40:58.795Z,4.90
2023-05-07T03:45:00.558Z,7.20
2023-05-07T03:49:02.227Z,3.42
2023-05-07T03:53:03.834Z,6.62
2023-05-07T03:57:05.525Z,6.40
2023-05-07T04:01:08.300Z,4.20
2023-05-07T04:05:10.354Z,6.28
2023-05-07T04:09:12.014Z,4.78
2023-05-07T04:13:14.169Z,17.80
2023-05-07T04:17:15.923Z,10.77
2023-05-07T04:21:21.783Z,8.57
2023-05-07T04:25:27.583Z,10.15
2023-05-07T04:29:29.584Z,5.75
2023-05-07T04:33:31.319Z,3.87
2023-05-07T04:37:33.669Z,3.33
2023-05-07T04:41:37.403Z,5.65
2023-05-07T04:45:41.442Z,8.43
2023-05-07T04:49:43.219Z,7.87
2023-05-07T04:53:44.834Z,2.92
2023-05-07T04:57:46.446Z,3.78
2023-05-07T05:01:48.207Z,4.65
2023-05-07T05:05:53.800Z,5.43
2023-05-07T05:09:56.438Z,8.32
2023-05-07T05:13:58.149Z,4.07
2023-05-07T05:17:59.821Z,6.20
2023-05-07T05:22:02.061Z,3.30
2023-05-07T05:26:03.711Z,3.05
2023-05-07T05:30:06.593Z,4.40
2023-05-07T05:34:08.258Z,6.12
2023-05-07T05:38:09.959Z,5.07
2023-05-07T05:42:11.618Z,6.30
2023-05-07T05:46:13.458Z,3.53
2023-05-07T05:50:15.396Z,4.03
2023-05-07T05:54:18.271Z,5.53
2023-05-07T05:58:19.983Z,5.62
2023-05-07T06:02:21.751Z,5.40
2023-05-07T06:06:23.530Z,2.75
2023-05-07T06:10:25.339Z,4.32
2023-05-07T06:14:27.069Z,3.90
2023-05-07T06:18:28.750Z,3.37
2023-05-07T06:22:30.546Z,2.67
2023-05-07T06:26:32.182Z,2.00
2023-05-07T06:30:33.810Z,1.95
2023-05-07T06:34:35.531Z,2.65
2023-05-07T06:38:37.283Z,2.28
2023-05-07T06:42:39.119Z,2.55
2023-05-07T06:46:40.933Z,4.47
2023-05-07T06:50:43.093Z,2.95
2023-05-07T06:54:44.741Z,4.68
2023-05-07T06:58:46.416Z,4.60
2023-05-07T07:02:48.288Z,2.65
2023-05-07T07:06:49.988Z,1.77
2023-05-07T07:10:51.737Z,3.75
2023-05-07T07:14:55.171Z,2.58
2023-05-07T07:18:56.950Z,4.47
2023-05-07T07:22:58.597Z,4.43
2023-05-07T07:27:00.258Z,6.75
2023-05-07T07:31:01.893Z,2.78
2023-05-07T07:35:03.778Z,4.68
2023-05-07T07:39:05.433Z,2.78
2023-05-07T07:43:07.508Z,4.95
2023-05-07T07:47:09.235Z,2.58
2023-05-07T07:51:11.412Z,2.50
2023-05-07T07:55:13.435Z,2.53
2023-05-07T07:59:18.582Z,2.62
2023-05-07T08:03:20.681Z,3.35
2023-05-07T08:07:23.626Z,3.62
2023-05-07T08:11:26.275Z,2.08
2023-05-07T08:15:27.985Z,2.97
2023-05-07T08:19:29.675Z,1.95
2023-05-07T08:23:31.488Z,3.53
2023-05-07T08:27:33.235Z,4.28
2023-05-07T08:31:34.870Z,2.78
2023-05-07T08:35:36.514Z,2.70
2023-05-07T08:39:38.124Z,4.93
2023-05-07T08:43:42.324Z,2.33
2023-05-07T08:47:47.340Z,2.37
2023-05-07T08:51:49.521Z,2.20
2023-05-07T08:55:52.077Z,1.30
2023-05-07T08:59:53.833Z,2.05
2023-05-07T09:03:55.853Z,3.78
2023-05-07T09:08:01.008Z,1.55
2023-05-07T09:12:04.616Z,3.42
2023-05-07T09:16:13.637Z,2.17
2023-05-07T09:20:15.526Z,2.55
2023-05-07T09:24:17.902Z,3.78
2023-05-07T09:28:19.621Z,2.72
2023-05-07T09:32:21.314Z,3.05
2023-05-07T09:36:23.602Z,1.67
2023-05-07T09:40:27.218Z,2.65
2023-05-07T09:44:28.920Z,1.95
2023-05-07T09:48:30.961Z,2.40
2023-05-07T09:52:36.130Z,0.73
2023-05-07T09:56:38.828Z,3.08
2023-05-07T10:00:42.011Z,2.80
2023-05-07T10:04:44.329Z,1.98
2023-05-07T10:08:46.329Z,2.35
2023-05-07T10:12:48.480Z,4.90
2023-05-07T10:16:50.583Z,2.15
2023-05-07T10:20:53.831Z,1.42
2023-05-07T10:25:00.473Z,3.55
2023-05-07T10:29:13.248Z,0.95
2023-05-07T10:33:17.770Z,4.18
2023-05-07T10:37:19.631Z,3.58
2023-05-07T10:41:22.127Z,3.03
2023-05-07T10:45:24.522Z,2.05
2023-05-07T10:49:26.304Z,3.92
2023-05-07T10:53:28.564Z,2.65
2023-05-07T10:57:36.434Z,3.30
2023-05-07T11:01:55.232Z,1.58
2023-05-07T11:06:17.052Z,2.60
2023-05-07T11:10:18.806Z,2.83
2023-05-07T11:14:43.180Z,1.45
2023-05-07T11:18:52.994Z,2.60
2023-05-07T11:22:56.665Z,3.17
2023-05-07T11:26:59.341Z,2.87
2023-05-07T11:31:01.258Z,1.37
2023-05-07T11:35:03.271Z,0.93
2023-05-07T11:39:04.941Z,1.05
2023-05-07T11:43:12.745Z,3.03
2023-05-07T11:47:21.514Z,1.55
2023-05-07T11:51:26.849Z,1.52
2023-05-07T11:55:28.934Z,3.30
2023-05-07T11:59:30.673Z,3.62
2023-05-07T12:03:36.197Z,2.05
2023-05-07T12:07:38.491Z,1.47
2023-05-07T12:11:40.836Z,3.72
2023-05-07T12:15:43.356Z,3.45
2023-05-07T12:19:46.071Z,3.60
2023-05-07T12:23:48.738Z,2.42
2023-05-07T12:27:54.364Z,2.92
2023-05-07T12:31:56.142Z,1.70
2023-05-07T12:35:57.888Z,2.62
2023-05-07T12:40:11.169Z,5.30
2023-05-07T12:44:16.039Z,4.10
2023-05-07T12:48:18.414Z,2.20
2023-05-07T12:52:21.081Z,3.17
2023-05-07T12:56:22.748Z,2.80
2023-05-07T13:00:39.456Z,3.25
2023-05-07T13:04:41.153Z,2.37
2023-05-07T13:08:46.263Z,6.40
2023-05-07T13:12:47.962Z,4.78
2023-05-07T13:16:50.287Z,4.20
2023-05-07T13:20:52.190Z,13.00
2023-05-07T13:24:53.924Z,15.05
2023-05-07T13:28:55.669Z,11.15
2023-05-07T13:32:57.627Z,14.15
2023-05-07T13:36:59.342Z,17.80
2023-05-07T13:41:00.975Z,14.38
2023-05-07T13:45:05.943Z,13.98
2023-05-07T13:49:07.687Z,15.10
2023-05-07T13:53:09.534Z,18.75
2023-05-07T13:57:11.211Z,25.85
2023-05-07T14:01:13.164Z,21.58
2023-05-07T14:05:14.868Z,25.60
2023-05-07T14:09:16.521Z,24.23
2023-05-07T14:13:18.706Z,19.62
2023-05-07T14:17:21.179Z,24.67
2023-05-07T14:21:22.986Z,27.20
2023-05-07T14:25:24.753Z,28.58
2023-05-07T14:29:26.645Z,26.23
2023-05-07T14:33:28.246Z,25.88
2023-05-07T14:37:29.974Z,22.62
2023-05-07T14:41:32.642Z,24.98
2023-05-07T14:45:34.315Z,22.75
2023-05-07T14:49:36.888Z,21.73
2023-05-07T14:53:38.770Z,20.95
2023-05-07T14:57:41.286Z,20.50
2023-05-07T15:01:46.242Z,18.00
2023-05-07T15:05:47.968Z,17.95
2023-05-07T15:09:49.569Z,22.13
2023-05-07T15:13:51.263Z,16.08
2023-05-07T15:17:52.958Z,31.83
2023-05-07T15:21:54.640Z,23.10
2023-05-07T15:25:56.358Z,28.23
2023-05-07T15:29:58.541Z,23.58
2023-05-07T15:34:01.430Z,21.58
2023-05-07T15:38:03.892Z,20.83
2023-05-07T15:42:05.667Z,26.85
2023-05-07T15:46:07.351Z,15.88
2023-05-07T15:50:09.424Z,21.55
2023-05-07T15:54:11.165Z,23.02
2023-05-07T15:58:12.988Z,23.33
2023-05-07T16:02:14.763Z,23.35
2023-05-07T16:06:16.554Z,22.65
2023-05-07T16:10:18.530Z,16.83
2023-05-07T16:14:20.253Z,18.25
2023-05-07T16:18:21.890Z,18.90
2023-05-07T16:22:25.516Z,19.27
2023-05-07T16:26:27.314Z,12.50
2023-05-07T16:30:29.038Z,15.65
2023-05-07T16:34:32.246Z,11.60
2023-05-07T16:38:34.341Z,14.65
2023-05-07T16:42:36.449Z,17.62
2023-05-07T16:46:38.500Z,13.00
2023-05-07T16:50:41.384Z,11.98
2023-05-07T16:54:43.061Z,8.88
2023-05-07T16:58:44.702Z,9.48
2023-05-07T17:02:46.870Z,10.27
2023-05-07T17:06:48.732Z,11.10
2023-05-07T17:10:50.345Z,12.27
2023-05-07T17:14:52.258Z,7.50
2023-05-07T17:18:53.910Z,10.27
2023-05-07T17:22:55.664Z,12.32
2023-05-07T17:26:57.363Z,10.00
2023-05-07T17:30:59.072Z,10.75
2023-05-07T17:35:01.229Z,9.05
2023-05-07T17:39:04.260Z,10.30
2023-05-07T17:43:05.999Z,10.63
2023-05-07T17:47:08.317Z,9.82
2023-05-07T17:51:10.210Z,10.73
2023-05-07T17:55:12.167Z,9.43
2023-05-07T17:59:13.955Z,7.55
2023-05-07T18:03:16.091Z,8.70
2023-05-07T18:07:17.871Z,9.10
2023-05-07T18:11:19.813Z,8.18
2023-05-07T18:15:21.540Z,10.27
2023-05-07T18:19:23.256Z,11.00
2023-05-07T18:23:25.373Z,12.82
2023-05-07T18:27:27.013Z,10.77
2023-05-07T18:31:28.822Z,11.07
2023-05-07T18:35:31.542Z,11.50
2023-05-07T18:39:34.809Z,10.75
2023-05-07T18:43:36.581Z,11.57
2023-05-07T18:47:38.262Z,12.23
2023-05-07T18:51:39.961Z,13.35
2023-05-07T18:55:41.678Z,11.68
2023-05-07T18:59:43.452Z,13.18
2023-05-07T19:03:45.113Z,12.90
2023-05-07T19:07:50.899Z,13.07
2023-05-07T19:11:52.510Z,11.10
2023-05-07T19:15:54.952Z,14.05
2023-05-07T19:19:56.697Z,13.68
2023-05-07T19:23:58.363Z,11.82
2023-05-07T19:28:00.097Z,12.13
2023-05-07T19:32:02.510Z,12.10
2023-05-07T19:36:04.544Z,9.98
2023-05-07T19:40:07.036Z,10.38
2023-05-07T19:44:08.920Z,12.32
2023-05-07T19:48:10.856Z,13.00
2023-05-07T19:52:12.531Z,10.43
2023-05-07T19:56:14.812Z,10.18
2023-05-07T20:00:17.087Z,12.95
2023-05-07T20:04:19.179Z,14.20
2023-05-07T20:08:20.874Z,16.83
2023-05-07T20:12:22.638Z,11.43
2023-05-07T20:16:24.421Z,13.13
2023-05-07T20:20:26.097Z,18.12
2023-05-07T20:24:27.981Z,11.73
2023-05-07T20:28:29.619Z,16.23
2023-05-07T20:32:31.280Z,12.88
2023-05-07T20:36:33.010Z,12.35
2023-05-07T20:40:37.549Z,11.23
2023-05-07T20:44:39.262Z,13.55
2023-05-07T20:48:40.926Z,13.70
2023-05-07T20:52:42.712Z,12.77
2023-05-07T20:56:44.432Z,12.37
2023-05-07T21:00:46.094Z,12.93
2023-05-07T21:04:51.160Z,15.90
2023-05-07T21:08:53.246Z,16.42
2023-05-07T21:12:54.925Z,10.55
2023-05-07T21:16:56.949Z,11.73
2023-05-07T21:20:58.687Z,12.15
2023-05-07T21:25:01.094Z,14.75
2023-05-07T21:29:02.902Z,11.10
2023-05-07T21:33:07.004Z,10.70
2023-05-07T21:37:09.976Z,12.10
2023-05-07T21:41:12.388Z,14.00
2023-05-07T21:45:14.107Z,14.30
2023-05-07T21:49:15.778Z,11.73
2023-05-07T21:53:17.498Z,13.23
2023-05-07T21:57:19.439Z,15.93
2023-05-07T22:01:21.322Z,12.80
2023-05-07T22:05:23.177Z,13.88
2023-05-07T22:09:24.925Z,9.63
2023-05-07T22:13:26.802Z,13.40
2023-05-07T22:17:28.605Z,12.20
2023-05-07T22:21:31.208Z,12.95
2023-05-07T22:25:36.618Z,11.38
2023-05-07T22:29:38.589Z,15.45
2023-05-07T22:33:40.431Z,14.35
2023-05-07T22:37:42.124Z,13.20
2023-05-07T22:41:43.831Z,11.68
2023-05-07T22:45:45.643Z,14.38
2023-05-07T22:49:47.321Z,15.02
2023-05-07T22:53:49.099Z,12.73
2023-05-07T22:57:50.756Z,15.82
2023-05-07T23:01:52.473Z,13.18
2023-05-07T23:05:54.162Z,17.45
2023-05-07T23:09:55.956Z,11.80
2023-05-07T23:13:57.692Z,14.40
2023-05-07T23:17:59.464Z,11.27
2023-05-07T23:22:01.273Z,14.32
2023-05-07T23:26:03.093Z,17.20
2023-05-07T23:30:05.416Z,15.15
2023-05-07T23:34:07.201Z,11.38
2023-05-07T23:38:09.037Z,13.98
2023-05-07T23:42:10.799Z,18.58
2023-05-07T23:46:12.561Z,11.12
2023-05-07T23:50:14.427Z,10.95
2023-05-07T23:54:16.234Z,11.02
2023-05-07T23:58:17.985Z,12.13
